Time;durP1;ratioP1;P1;durP2;ratioP2;P2;SDS_P1;SDS_P2;PMS_P1;PMS_P2;Temp;Humidity;BMP_temperature;BMP_pressure;BME280_temperature;BME280_humidity;BME280_pressure;Samples;Min_cycle;Max_cycle;Signal;HPM_P1;HPM_P2
2022/09/23 00:01:53;;;;;;;11.73;10.13;;;11.40;99.90;;;;;;4879104;29;20040;-61
2022/09/23 00:04:19;;;;;;;12.00;9.45;;;11.40;99.90;;;;;;4895975;29;20033;-61
2022/09/23 00:06:45;;;;;;;12.88;10.25;;;11.30;99.90;;;;;;4896292;29;20467;-61
2022/09/23 00:09:10;;;;;;;13.90;10.38;;;11.30;99.90;;;;;;4895098;29;20041;-61
2022/09/23 00:11:37;;;;;;;12.02;10.00;;;11.30;99.90;;;;;;4896382;29;20048;-62
2022/09/23 00:14:03;;;;;;;13.13;9.75;;;11.30;99.90;;;;;;4879799;29;20064;-62
2022/09/23 00:16:32;;;;;;;13.20;9.90;;;11.30;99.90;;;;;;4896002;29;20375;-62
2022/09/23 00:19:01;;;;;;;14.75;10.07;;;11.20;99.90;;;;;;4896147;29;20265;-61
2022/09/23 00:21:28;;;;;;;11.68;10.27;;;11.20;99.90;;;;;;4882984;29;20096;-61
2022/09/23 00:23:53;;;;;;;13.15;10.32;;;11.20;99.90;;;;;;4896328;29;20148;-62
2022/09/23 00:26:21;;;;;;;12.85;10.40;;;11.20;99.90;;;;;;4896110;29;20068;-61
2022/09/23 00:28:48;;;;;;;11.20;10.00;;;11.20;99.90;;;;;;4895333;29;20123;-61
2022/09/23 00:31:16;;;;;;;13.23;10.98;;;11.10;99.90;;;;;;4895970;29;20048;-62
2022/09/23 00:33:41;;;;;;;11.50;10.13;;;11.10;99.90;;;;;;4895652;29;20051;-62
2022/09/23 00:36:09;;;;;;;15.95;10.65;;;11.10;99.90;;;;;;4895596;29;20048;-62
2022/09/23 00:38:36;;;;;;;12.00;10.45;;;11.10;99.90;;;;;;4895341;29;20057;-62
2022/09/23 00:41:02;;;;;;;14.07;11.15;;;11.00;99.90;;;;;;4895716;29;20087;-62
2022/09/23 00:43:42;;;;;;;12.27;10.00;;;11.00;99.90;;;;;;4895852;29;20115;-62
2022/09/23 00:46:10;;;;;;;12.35;10.50;;;11.00;99.90;;;;;;4895967;29;20041;-62
2022/09/23 00:48:38;;;;;;;12.45;10.30;;;11.00;99.90;;;;;;4895415;29;20044;-62
2022/09/23 00:51:08;;;;;;;15.15;10.55;;;11.00;99.90;;;;;;4895906;29;20041;-61
2022/09/23 00:53:33;;;;;;;12.57;11.05;;;10.90;99.90;;;;;;4896219;29;20135;-62
2022/09/23 00:56:03;;;;;;;12.20;10.35;;;10.90;99.90;;;;;;4896153;29;20052;-61
2022/09/23 00:58:32;;;;;;;14.27;11.20;;;10.90;99.90;;;;;;4899245;29;20049;-61
2022/09/23 01:00:59;;;;;;;12.32;11.02;;;10.90;99.90;;;;;;4899371;29;20032;-61
2022/09/23 01:03:25;;;;;;;12.50;10.55;;;10.90;99.90;;;;;;4883088;29;20431;-62
2022/09/23 01:05:51;;;;;;;13.55;11.10;;;10.90;99.90;;;;;;4899284;29;20371;-62
2022/09/23 01:08:18;;;;;;;14.27;10.25;;;10.90;99.90;;;;;;4899271;29;20051;-62
2022/09/23 01:11:17;;;;;;;11.30;10.10;;;11.00;99.90;;;;;;4899353;29;20040;-62
2022/09/23 01:14:26;;;;;;;12.60;10.18;;;11.00;99.90;;;;;;4890610;29;20524;-62
2022/09/23 01:17:18;;;;;;;15.70;10.77;;;11.00;99.90;;;;;;4880619;29;20048;-62
2022/09/23 01:20:16;;;;;;;12.57;10.70;;;11.00;99.90;;;;;;4898748;29;20065;-62
2022/09/23 01:22:51;;;;;;;12.90;11.10;;;11.00;99.90;;;;;;4859000;29;20541;-62
2022/09/23 01:25:47;;;;;;;14.25;10.75;;;10.90;99.90;;;;;;4899316;29;20039;-62
2022/09/23 01:28:46;;;;;;;13.13;10.48;;;10.90;99.90;;;;;;4898983;29;20040;-62
2022/09/23 01:31:44;;;;;;;12.38;11.13;;;10.90;99.90;;;;;;4895826;29;20065;-62
2022/09/23 01:34:15;;;;;;;12.35;11.05;;;10.90;99.90;;;;;;4887098;29;20084;-61
2022/09/23 01:36:50;;;;;;;13.07;11.20;;;10.90;99.90;;;;;;4898758;29;20064;-62
2022/09/23 01:39:30;;;;;;;13.18;10.68;;;10.90;99.90;;;;;;4898564;29;20055;-62
2022/09/23 01:42:21;;;;;;;14.05;10.68;;;10.80;99.90;;;;;;4898820;29;20076;-62
2022/09/23 01:44:55;;;;;;;13.45;11.52;;;10.90;99.90;;;;;;4898602;29;20403;-62
2022/09/23 01:47:35;;;;;;;13.35;10.38;;;10.80;99.90;;;;;;4898800;29;20411;-62
2022/09/23 01:50:55;;;;;;;11.45;10.35;;;10.70;99.90;;;;;;4898203;29;20111;-63
2022/09/23 01:53:00;;;;;;;14.68;10.60;;;10.70;99.90;;;;;;4881664;29;20104;-62
2022/09/23 01:55:40;;;;;;;12.40;11.10;;;10.70;99.90;;;;;;4898714;29;20095;-62
2022/09/23 01:58:14;;;;;;;12.80;10.55;;;10.70;99.90;;;;;;4871080;29;20062;-62
2022/09/23 02:00:49;;;;;;;12.18;10.68;;;10.70;99.90;;;;;;4898321;29;20036;-62
2022/09/23 02:03:31;;;;;;;13.15;10.52;;;10.70;99.90;;;;;;4898772;29;20072;-62
2022/09/23 02:06:28;;;;;;;14.45;10.73;;;10.70;99.90;;;;;;4898520;29;20196;-62
2022/09/23 02:09:05;;;;;;;14.38;10.90;;;10.70;99.90;;;;;;4898042;29;20045;-62
2022/09/23 02:11:35;;;;;;;13.23;11.05;;;10.70;99.90;;;;;;4898066;29;20223;-62
2022/09/23 02:14:14;;;;;;;14.27;11.25;;;10.70;99.90;;;;;;4898453;29;20111;-62
2022/09/23 02:16:49;;;;;;;14.68;11.20;;;10.60;99.90;;;;;;4886215;29;20044;-62
2022/09/23 02:19:39;;;;;;;11.90;10.65;;;10.60;99.90;;;;;;4897677;29;20351;-62
2022/09/23 02:22:13;;;;;;;13.63;11.68;;;10.50;99.90;;;;;;4898031;29;20063;-64
2022/09/23 02:24:39;;;;;;;13.95;11.02;;;10.50;99.90;;;;;;4898152;29;20056;-62
2022/09/23 02:27:24;;;;;;;13.27;11.38;;;10.50;99.90;;;;;;4898105;29;20048;-62
2022/09/23 02:29:56;;;;;;;13.30;10.95;;;10.50;99.90;;;;;;4897402;29;20466;-62
2022/09/23 02:32:57;;;;;;;14.52;10.95;;;10.40;99.90;;;;;;4884855;29;20463;-61
2022/09/23 02:35:32;;;;;;;12.48;11.18;;;10.40;99.90;;;;;;4897878;29;20045;-62
2022/09/23 02:38:09;;;;;;;13.68;10.68;;;10.30;99.90;;;;;;4897456;29;20102;-62
2022/09/23 02:40:40;;;;;;;13.35;11.95;;;10.30;99.90;;;;;;4887033;29;20070;-62
2022/09/23 02:43:35;;;;;;;13.18;11.30;;;10.30;99.90;;;;;;4881514;29;20106;-62
2022/09/23 02:46:02;;;;;;;;;;;10.30;99.90;;;;;;4883073;29;20048;-62
2022/09/23 02:48:40;;;;;;;14.20;11.20;;;10.20;99.90;;;;;;4897565;29;19970;-62
2022/09/23 02:51:06;;;;;;;12.25;10.93;;;10.20;99.90;;;;;;4897674;29;20075;-61
2022/09/23 02:53:33;;;;;;;14.75;11.52;;;10.20;99.90;;;;;;4897701;29;20378;-63
2022/09/23 02:56:00;;;;;;;15.85;12.27;;;10.20;99.90;;;;;;4897373;29;20481;-62
2022/09/23 02:58:26;;;;;;;12.68;11.38;;;10.20;99.90;;;;;;4897295;29;20131;-61
2022/09/23 03:00:58;;;;;;;12.73;11.10;;;10.20;99.90;;;;;;4880648;29;20104;-62
2022/09/23 03:04:05;;;;;;;14.18;11.60;;;10.20;99.90;;;;;;4897564;29;20025;-62
2022/09/23 03:07:07;;;;;;;14.27;11.35;;;10.20;99.90;;;;;;4897518;29;20330;-63
2022/09/23 03:10:02;;;;;;;13.15;11.50;;;10.10;99.90;;;;;;4870533;29;20056;-62
2022/09/23 03:12:37;;;;;;;;;;;10.10;99.90;;;;;;4889568;29;20064;-61
2022/09/23 03:15:05;;;;;;;13.45;11.50;;;10.00;99.90;;;;;;4897343;29;19919;-63
2022/09/23 03:17:37;;;;;;;13.10;11.65;;;10.00;99.90;;;;;;4897411;29;20057;-62
2022/09/23 03:20:21;;;;;;;12.30;11.07;;;10.00;99.90;;;;;;4896191;29;20067;-62
2022/09/23 03:22:53;;;;;;;13.25;11.88;;;10.00;99.90;;;;;;4897085;29;20044;-62
2022/09/23 03:25:23;;;;;;;12.95;11.40;;;9.90;99.90;;;;;;4897041;29;20676;-62
2022/09/23 03:27:49;;;;;;;12.82;11.35;;;9.90;99.90;;;;;;4897088;29;20131;-62
2022/09/23 03:30:16;;;;;;;13.70;12.13;;;9.90;99.90;;;;;;4896442;29;20044;-62
2022/09/23 03:32:45;;;;;;;13.52;11.93;;;9.90;99.90;;;;;;4897383;29;20040;-62
2022/09/23 03:35:12;;;;;;;14.02;12.30;;;9.80;99.90;;;;;;4897051;29;20090;-62
2022/09/23 03:37:42;;;;;;;13.45;12.05;;;9.80;99.90;;;;;;4896916;29;20089;-62
2022/09/23 03:40:16;;;;;;;13.85;11.82;;;9.80;99.90;;;;;;4896474;29;20412;-62
2022/09/23 03:42:42;;;;;;;13.73;12.27;;;9.80;99.90;;;;;;4885167;29;20132;-62
2022/09/23 03:45:17;;;;;;;13.70;11.73;;;9.80;99.90;;;;;;4896982;29;20127;-62
2022/09/23 03:47:44;;;;;;;13.57;12.20;;;9.80;99.90;;;;;;4897143;29;20047;-62
2022/09/23 03:50:12;;;;;;;13.35;11.95;;;9.70;99.90;;;;;;4896311;29;20044;-62
2022/09/23 03:52:38;;;;;;;13.43;12.00;;;9.70;99.90;;;;;;4879857;29;20059;-62
2022/09/23 03:55:07;;;;;;;12.40;11.20;;;9.70;99.90;;;;;;4896863;29;20060;-62
2022/09/23 03:57:33;;;;;;;13.63;12.23;;;9.70;99.90;;;;;;4896674;29;20048;-61
2022/09/23 03:59:58;;;;;;;13.48;12.00;;;9.70;99.90;;;;;;4896082;29;20040;-61
2022/09/23 04:02:25;;;;;;;16.85;12.32;;;9.60;99.90;;;;;;4896670;29;20045;-62
2022/09/23 04:04:50;;;;;;;13.23;11.75;;;9.60;99.90;;;;;;4896661;29;20497;-62
2022/09/23 04:07:16;;;;;;;13.18;11.77;;;9.60;99.90;;;;;;4896615;29;20044;-62
2022/09/23 04:09:41;;;;;;;14.07;12.65;;;9.60;99.90;;;;;;4896096;29;20047;-62
2022/09/23 04:12:12;;;;;;;13.20;11.73;;;9.60;99.90;;;;;;4896690;29;20108;-62
2022/09/23 04:14:37;;;;;;;13.88;11.77;;;9.60;99.90;;;;;;4896558;29;20037;-62
2022/09/23 04:17:03;;;;;;;13.10;11.70;;;9.60;99.90;;;;;;4896709;29;20108;-62
2022/09/23 04:19:29;;;;;;;13.25;11.88;;;9.60;99.90;;;;;;4895892;29;20040;-61
2022/09/23 04:21:55;;;;;;;14.10;11.35;;;9.60;99.90;;;;;;4896500;29;20032;-62
2022/09/23 04:24:20;;;;;;;13.45;11.98;;;9.60;99.90;;;;;;4896435;29;20040;-62
2022/09/23 04:26:50;;;;;;;13.00;11.65;;;9.60;99.90;;;;;;4896450;29;20048;-62
2022/09/23 04:29:15;;;;;;;13.75;12.35;;;9.60;99.90;;;;;;4896062;29;20065;-62
2022/09/23 04:31:41;;;;;;;14.88;12.02;;;9.60;99.90;;;;;;4880456;29;20090;-62
2022/09/23 04:34:07;;;;;;;14.23;12.10;;;9.60;99.90;;;;;;4900258;29;20427;-62
2022/09/23 04:36:33;;;;;;;13.82;12.32;;;9.60;99.90;;;;;;4899835;29;20057;-62
2022/09/23 04:38:59;;;;;;;13.98;11.63;;;9.60;99.90;;;;;;4882801;29;20048;-62
2022/09/23 04:41:25;;;;;;;13.88;12.48;;;9.60;99.90;;;;;;4899547;29;20525;-62
2022/09/23 04:43:51;;;;;;;13.20;11.82;;;9.60;99.90;;;;;;4900041;29;20048;-62
2022/09/23 04:46:17;;;;;;;13.30;11.73;;;9.60;99.90;;;;;;4899080;29;20040;-62
2022/09/23 04:48:43;;;;;;;13.80;12.20;;;9.50;99.90;;;;;;4899187;29;20109;-62
2022/09/23 04:51:10;;;;;;;14.18;12.23;;;9.50;99.90;;;;;;4881948;29;20131;-62
2022/09/23 04:53:39;;;;;;;13.90;12.00;;;9.50;99.90;;;;;;4899176;29;20326;-62
2022/09/23 04:56:08;;;;;;;18.77;12.30;;;9.50;99.90;;;;;;4882005;29;20056;-62
2022/09/23 04:58:35;;;;;;;15.23;12.45;;;9.40;99.90;;;;;;4898888;29;20641;-62
2022/09/23 05:01:08;;;;;;;13.98;12.32;;;9.40;99.90;;;;;;4881428;29;20529;-62
2022/09/23 05:03:34;;;;;;;13.65;12.15;;;9.40;99.90;;;;;;4899415;29;20048;-62
2022/09/23 05:06:00;;;;;;;14.05;12.65;;;9.40;99.90;;;;;;4896431;29;20095;-62
2022/09/23 05:08:26;;;;;;;13.27;11.60;;;9.40;99.90;;;;;;4888982;29;20036;-62
2022/09/23 05:10:59;;;;;;;14.20;12.82;;;9.40;99.90;;;;;;4889947;29;20482;-62
2022/09/23 05:13:25;;;;;;;13.63;12.10;;;9.40;99.90;;;;;;4897816;29;20103;-62
2022/09/23 05:16:03;;;;;;;14.25;12.73;;;9.30;99.90;;;;;;4898218;29;20124;-62
2022/09/23 05:18:41;;;;;;;16.00;12.43;;;9.30;99.90;;;;;;4896287;29;20059;-62
2022/09/23 05:21:10;;;;;;;14.35;12.68;;;9.30;99.90;;;;;;4898107;29;20068;-62
2022/09/23 05:23:36;;;;;;;14.82;13.18;;;9.30;99.90;;;;;;4895975;29;20033;-63
2022/09/23 05:26:05;;;;;;;14.10;12.48;;;9.20;99.90;;;;;;4893654;29;20160;-63
2022/09/23 05:28:32;;;;;;;14.35;12.88;;;9.20;99.90;;;;;;4895483;29;20101;-63
2022/09/23 05:31:13;;;;;;;15.05;13.45;;;9.20;99.90;;;;;;4898709;29;20477;-63
2022/09/23 05:33:40;;;;;;;14.32;12.77;;;9.20;99.90;;;;;;4899088;29;20059;-61
2022/09/23 05:36:06;;;;;;;13.73;12.32;;;9.20;99.90;;;;;;4897940;29;20048;-62
2022/09/23 05:38:32;;;;;;;17.90;13.80;;;9.20;99.90;;;;;;4898580;29;20048;-61
2022/09/23 05:41:00;;;;;;;13.63;12.25;;;9.20;99.90;;;;;;4898784;29;20182;-61
2022/09/23 05:43:26;;;;;;;14.63;13.13;;;9.20;99.90;;;;;;4898576;29;20041;-61
2022/09/23 05:46:01;;;;;;;14.48;12.98;;;9.30;99.90;;;;;;4898500;29;20123;-61
2022/09/23 05:48:30;;;;;;;15.02;13.40;;;9.40;99.90;;;;;;4898448;29;20040;-61
2022/09/23 05:50:55;;;;;;;16.75;12.20;;;9.40;99.90;;;;;;4893020;29;20084;-62
2022/09/23 05:53:21;;;;;;;14.93;12.38;;;9.40;99.90;;;;;;4890122;29;20147;-62
2022/09/23 05:55:47;;;;;;;14.82;12.80;;;9.50;99.90;;;;;;4898587;29;20044;-61
2022/09/23 05:58:12;;;;;;;14.38;12.93;;;9.60;99.90;;;;;;4881652;29;20521;-61
2022/09/23 06:00:40;;;;;;;14.20;12.80;;;9.60;99.90;;;;;;4898083;29;20033;-61
2022/09/23 06:03:12;;;;;;;14.80;12.48;;;9.70;99.90;;;;;;4898650;29;20032;-61
2022/09/23 06:05:38;;;;;;;14.82;13.10;;;9.80;99.90;;;;;;4898681;29;20040;-61
2022/09/23 06:08:03;;;;;;;14.35;12.00;;;9.80;99.90;;;;;;4898064;29;20384;-61
2022/09/23 06:10:29;;;;;;;14.73;12.13;;;9.90;99.90;;;;;;4881600;29;20171;-61
2022/09/23 06:12:54;;;;;;;13.30;11.95;;;10.10;99.90;;;;;;4898290;29;20037;-62
2022/09/23 06:15:20;;;;;;;15.20;11.95;;;10.20;99.90;;;;;;4898253;29;20494;-62
2022/09/23 06:17:49;;;;;;;14.13;11.70;;;10.40;99.90;;;;;;4881410;29;20044;-61
2022/09/23 06:20:14;;;;;;;13.88;11.48;;;10.50;99.90;;;;;;4898219;29;20079;-62
2022/09/23 06:22:40;;;;;;;12.95;11.75;;;10.60;99.90;;;;;;4898223;29;20072;-62
2022/09/23 06:25:06;;;;;;;16.13;12.23;;;10.60;99.90;;;;;;4898263;29;20167;-61
2022/09/23 06:27:31;;;;;;;14.18;11.98;;;10.60;99.90;;;;;;4897971;29;20036;-62
2022/09/23 06:29:57;;;;;;;14.98;11.90;;;10.60;99.90;;;;;;4897248;29;20032;-62
2022/09/23 06:32:22;;;;;;;14.25;11.98;;;10.50;99.90;;;;;;4897997;29;20037;-61
2022/09/23 06:34:48;;;;;;;14.90;11.50;;;10.50;99.90;;;;;;4881277;29;20366;-62
2022/09/23 06:37:13;;;;;;;16.42;11.68;;;10.50;99.90;;;;;;4897643;29;20159;-62
2022/09/23 06:39:39;;;;;;;14.90;11.70;;;10.50;99.90;;;;;;4897397;29;20052;-63
2022/09/23 06:42:05;;;;;;;13.30;11.70;;;10.50;99.90;;;;;;4893918;29;20056;-61
2022/09/23 06:44:31;;;;;;;14.80;11.75;;;10.50;99.90;;;;;;4897985;29;20044;-62
2022/09/23 06:46:56;;;;;;;12.80;11.45;;;10.50;99.90;;;;;;4898132;29;20446;-62
2022/09/23 06:49:22;;;;;;;13.90;11.38;;;10.50;99.90;;;;;;4896516;29;20040;-61
2022/09/23 06:51:47;;;;;;;15.25;12.05;;;10.50;99.90;;;;;;4880778;29;20044;-62
2022/09/23 06:54:13;;;;;;;12.63;11.32;;;10.50;99.90;;;;;;4897010;29;20044;-62
2022/09/23 06:56:39;;;;;;;13.00;11.60;;;10.50;99.90;;;;;;4897699;29;20420;-62
2022/09/23 06:59:06;;;;;;;14.35;12.20;;;10.50;99.90;;;;;;4896894;29;20079;-61
2022/09/23 07:01:32;;;;;;;15.38;11.75;;;10.50;99.90;;;;;;4897457;29;20045;-62
2022/09/23 07:03:59;;;;;;;15.05;11.70;;;10.60;99.90;;;;;;4897213;29;20147;-61
2022/09/23 07:06:24;;;;;;;13.85;11.57;;;10.70;99.90;;;;;;4897508;29;20044;-62
2022/09/23 07:08:51;;;;;;;13.70;12.05;;;10.70;99.90;;;;;;4897139;29;20044;-62
2022/09/23 07:11:21;;;;;;;13.45;11.35;;;10.80;99.90;;;;;;4897230;29;20040;-61
2022/09/23 07:13:46;;;;;;;12.60;11.30;;;10.80;99.90;;;;;;4897480;29;20052;-61
2022/09/23 07:16:12;;;;;;;13.43;11.27;;;10.90;99.90;;;;;;4897394;29;20037;-61
2022/09/23 07:18:39;;;;;;;14.77;11.55;;;11.00;99.90;;;;;;4896997;29;20041;-61
2022/09/23 07:21:13;;;;;;;13.25;11.20;;;11.00;99.90;;;;;;4880019;29;20151;-61
2022/09/23 07:23:40;;;;;;;;;;;11.10;99.90;;;;;;4897758;29;20148;-61
2022/09/23 07:26:07;;;;;;;14.15;11.05;;;11.10;99.90;;;;;;4896843;29;20407;-61
2022/09/23 07:28:33;;;;;;;13.35;11.23;;;11.20;99.90;;;;;;4896769;29;20087;-61
2022/09/23 07:31:06;;;;;;;13.02;10.55;;;11.30;99.90;;;;;;4897244;29;20056;-63
2022/09/23 07:33:33;;;;;;;12.38;11.07;;;11.30;99.90;;;;;;4897037;29;20370;-61
2022/09/23 07:36:07;;;;;;;13.80;11.10;;;11.40;99.90;;;;;;4896948;29;20573;-63
2022/09/23 07:38:33;;;;;;;13.43;11.18;;;11.40;99.90;;;;;;4896615;29;20036;-61
2022/09/23 07:41:01;;;;;;;13.70;11.57;;;11.50;99.90;;;;;;4896698;29;20052;-61
2022/09/23 07:43:30;;;;;;;14.10;11.93;;;11.60;99.90;;;;;;4880102;29;20494;-61
2022/09/23 07:45:56;;;;;;;13.27;11.75;;;11.70;99.90;;;;;;4896514;29;20482;-61
2022/09/23 07:48:21;;;;;;;13.55;11.70;;;11.70;99.90;;;;;;4879843;29;20040;-62
2022/09/23 07:50:47;;;;;;;13.60;11.52;;;11.80;99.90;;;;;;4896504;29;20055;-62
2022/09/23 07:53:13;;;;;;;12.43;11.10;;;11.90;99.90;;;;;;4897064;29;20055;-61
2022/09/23 07:55:39;;;;;;;13.07;10.65;;;11.90;99.90;;;;;;4896755;29;20156;-61
2022/09/23 07:58:04;;;;;;;13.20;11.40;;;12.00;99.90;;;;;;4896330;29;20104;-62
2022/09/23 08:00:30;;;;;;;11.85;10.65;;;12.00;99.90;;;;;;4896279;29;20053;-61
2022/09/23 08:02:56;;;;;;;13.85;10.95;;;12.10;99.90;;;;;;4896632;29;20039;-61
2022/09/23 08:05:21;;;;;;;13.95;10.93;;;12.20;99.90;;;;;;4896332;29;20464;-62
2022/09/23 08:07:48;;;;;;;12.80;11.50;;;12.30;99.90;;;;;;4896195;29;20147;-61
2022/09/23 08:10:17;;;;;;;13.07;10.50;;;12.40;99.90;;;;;;4879803;29;20040;-62
2022/09/23 08:12:44;;;;;;;16.45;10.98;;;12.50;99.90;;;;;;4896680;29;20072;-62
2022/09/23 08:15:09;;;;;;;12.07;10.75;;;12.60;99.90;;;;;;4896615;29;20056;-61
2022/09/23 08:17:35;;;;;;;13.32;10.85;;;12.70;99.90;;;;;;4896350;29;20056;-62
2022/09/23 08:20:01;;;;;;;11.63;10.10;;;12.80;99.90;;;;;;4896061;29;20037;-61
2022/09/23 08:22:26;;;;;;;12.40;10.10;;;12.90;99.90;;;;;;4896176;29;20040;-62
2022/09/23 08:24:52;;;;;;;10.98;9.85;;;13.10;99.90;;;;;;4896399;29;20068;-61
2022/09/23 08:27:17;;;;;;;14.35;9.90;;;13.10;99.90;;;;;;4896157;29;20040;-61
2022/09/23 08:29:43;;;;;;;12.15;10.50;;;13.30;99.90;;;;;;4895824;29;20045;-62
2022/09/23 08:32:08;;;;;;;12.15;10.02;;;13.40;99.90;;;;;;4896609;29;20052;-61
2022/09/23 08:34:34;;;;;;;11.95;9.13;;;13.50;99.90;;;;;;4896540;29;20116;-62
2022/09/23 08:37:00;;;;;;;12.55;9.70;;;13.60;99.90;;;;;;4895950;29;20105;-62
2022/09/23 08:39:26;;;;;;;12.68;9.98;;;13.70;99.90;;;;;;4896000;29;20143;-62
2022/09/23 08:41:55;;;;;;;12.18;9.60;;;13.90;99.90;;;;;;4896067;29;20411;-61
2022/09/23 08:44:32;;;;;;;10.68;9.13;;;14.00;99.90;;;;;;4896183;29;20041;-61
2022/09/23 08:47:19;;;;;;;13.38;9.45;;;14.10;99.90;;;;;;4896034;29;20447;-62
2022/09/23 08:50:13;;;;;;;9.40;7.80;;;14.20;99.90;;;;;;4896085;29;20049;-63
2022/09/23 08:52:47;;;;;;;12.55;9.23;;;14.40;99.90;;;;;;4895188;29;20044;-61
2022/09/23 08:55:13;;;;;;;11.82;8.77;;;14.60;99.90;;;;;;4896407;29;20083;-62
2022/09/23 08:58:06;;;;;;;11.55;8.80;;;14.70;99.90;;;;;;4895856;29;20083;-62
2022/09/23 09:01:02;;;;;;;11.70;8.75;;;14.90;99.90;;;;;;4895999;29;20045;-62
2022/09/23 09:03:39;;;;;;;10.85;8.95;;;15.10;99.90;;;;;;4855349;29;20049;-62
2022/09/23 09:06:06;;;;;;;10.13;8.32;;;15.20;99.90;;;;;;4896215;29;20100;-63
2022/09/23 09:08:35;;;;;;;12.85;9.18;;;15.40;99.90;;;;;;4895777;29;20052;-61
2022/09/23 09:11:02;;;;;;;11.50;8.35;;;15.70;99.90;;;;;;4895746;29;20462;-62
2022/09/23 09:13:43;;;;;;;10.60;8.38;;;15.90;99.90;;;;;;4896149;29;20033;-62
2022/09/23 09:16:15;;;;;;;10.80;8.40;;;16.00;99.90;;;;;;4895987;29;20116;-62
2022/09/23 09:18:53;;;;;;;9.50;7.95;;;16.20;99.90;;;;;;4898124;29;20056;-62
2022/09/23 09:21:30;;;;;;;9.23;8.23;;;16.30;99.90;;;;;;4898958;29;20510;-62
2022/09/23 09:24:00;;;;;;;10.68;8.18;;;16.30;99.90;;;;;;4899292;29;20052;-61
2022/09/23 09:26:34;;;;;;;11.15;8.40;;;16.40;99.90;;;;;;4899356;29;20044;-61
2022/09/23 09:29:03;;;;;;;10.68;8.20;;;16.40;99.90;;;;;;4886112;29;20354;-62
2022/09/23 09:31:38;;;;;;;11.75;7.72;;;16.30;99.90;;;;;;4898839;29;20351;-62
2022/09/23 09:34:15;;;;;;;10.13;8.40;;;16.30;99.90;;;;;;4899409;29;20083;-61
2022/09/23 09:36:48;;;;;;;10.73;8.20;;;16.30;99.90;;;;;;4899026;29;20120;-63
2022/09/23 09:39:15;;;;;;;11.20;8.27;;;16.30;99.90;;;;;;4898748;29;20055;-62
2022/09/23 09:41:51;;;;;;;9.25;8.32;;;16.20;99.90;;;;;;4897921;29;20045;-62
2022/09/23 09:44:36;;;;;;;10.52;8.60;;;16.20;99.90;;;;;;4898971;29;20040;-62
2022/09/23 09:47:19;;;;;;;11.73;8.50;;;16.20;99.90;;;;;;4898841;29;20502;-63
2022/09/23 09:49:52;;;;;;;12.27;8.60;;;16.20;99.90;;;;;;4899102;29;20060;-62
2022/09/23 09:52:28;;;;;;;10.27;8.13;;;16.20;99.90;;;;;;4894952;29;20359;-62
2022/09/23 09:55:01;;;;;;;12.18;8.45;;;16.20;99.90;;;;;;4898732;29;20498;-62
2022/09/23 09:57:44;;;;;;;11.10;8.32;;;16.20;99.90;;;;;;4898235;29;20455;-62
2022/09/23 10:00:39;;;;;;;13.35;9.15;;;16.20;99.90;;;;;;4898295;29;20079;-61
2022/09/23 10:03:13;;;;;;;11.98;7.93;;;16.20;99.90;;;;;;4884271;29;20048;-62
2022/09/23 10:05:45;;;;;;;10.88;8.35;;;16.20;99.90;;;;;;4898805;29;20139;-61
2022/09/23 10:08:27;;;;;;;10.05;8.30;;;16.20;99.90;;;;;;4886092;29;20049;-62
2022/09/23 10:10:59;;;;;;;11.23;8.63;;;16.20;99.90;;;;;;4896983;29;20072;-62
2022/09/23 10:13:26;;;;;;;9.25;8.27;;;16.20;99.90;;;;;;4887066;29;20427;-63
2022/09/23 10:15:55;;;;;;;11.55;8.38;;;16.20;99.90;;;;;;4898337;29;20046;-62
2022/09/23 10:18:48;;;;;;;11.80;8.95;;;16.30;99.90;;;;;;4898198;29;20116;-63
2022/09/23 10:21:16;;;;;;;9.48;7.85;;;16.30;99.90;;;;;;4898339;29;20083;-62
2022/09/23 10:23:51;;;;;;;10.35;8.38;;;16.40;99.90;;;;;;4898342;29;20052;-62
2022/09/23 10:26:25;;;;;;;9.48;7.97;;;16.50;99.90;;;;;;4898084;29;20187;-62
2022/09/23 10:28:54;;;;;;;11.35;8.35;;;16.60;99.90;;;;;;4897222;29;20041;-62
2022/09/23 10:31:31;;;;;;;10.52;8.52;;;16.60;99.90;;;;;;4881276;29;20064;-63
2022/09/23 10:33:59;;;;;;;12.40;8.52;;;16.70;99.90;;;;;;4898087;29;20045;-63
2022/09/23 10:36:30;;;;;;;11.95;8.40;;;16.70;99.90;;;;;;4881182;29;20049;-63
2022/09/23 10:48:14;;;;;;;11.43;8.15;;;16.90;99.90;;;;;;4881219;29;20079;-62
2022/09/23 10:50:43;;;;;;;10.65;8.27;;;16.90;99.90;;;;;;4896284;29;20094;-62
2022/09/23 10:53:32;;;;;;;9.57;7.82;;;16.90;99.90;;;;;;4897460;29;20085;-62
2022/09/23 10:56:16;;;;;;;10.35;7.72;;;16.90;99.90;;;;;;4897589;29;20040;-62
2022/09/23 10:58:44;;;;;;;8.60;7.53;;;17.00;99.90;;;;;;4897594;29;20047;-63
2022/09/23 11:01:34;;;;;;;11.50;8.05;;;17.00;99.90;;;;;;4897395;29;20045;-62
2022/09/23 11:04:19;;;;;;;11.27;7.70;;;17.00;99.90;;;;;;4897259;29;20491;-62
2022/09/23 11:06:54;;;;;;;9.50;7.60;;;17.00;99.90;;;;;;4880900;29;20062;-63
2022/09/23 11:10:04;;;;;;;12.43;8.73;;;17.00;99.90;;;;;;4895740;29;20067;-62
2022/09/23 11:13:03;;;;;;;9.55;7.35;;;17.00;99.90;;;;;;4839291;29;20067;-62
2022/09/23 11:15:34;;;;;;;9.15;7.65;;;17.00;99.90;;;;;;4897492;29;20048;-63
2022/09/23 11:18:09;;;;;;;12.00;7.60;;;17.00;99.90;;;;;;4896908;29;20135;-62
2022/09/23 11:20:44;;;;;;;9.60;7.88;;;17.00;99.90;;;;;;4895847;29;20068;-62
2022/09/23 11:23:38;;;;;;;10.23;7.07;;;17.00;99.90;;;;;;4897083;29;20044;-62
2022/09/23 11:26:29;;;;;;;8.90;6.90;;;16.90;99.90;;;;;;4897359;29;20067;-62
2022/09/23 11:29:24;;;;;;;8.80;7.28;;;16.90;99.90;;;;;;4896376;29;20053;-63
2022/09/23 11:32:27;;;;;;;11.15;7.70;;;17.00;99.90;;;;;;4895446;29;20115;-62
2022/09/23 11:35:14;;;;;;;11.38;7.63;;;16.90;99.90;;;;;;4870269;29;20053;-62
2022/09/23 11:37:44;;;;;;;10.82;8.13;;;17.00;99.90;;;;;;4884665;29;20080;-62
2022/09/23 11:40:29;;;;;;;10.95;7.70;;;17.00;99.90;;;;;;4879530;29;20059;-64
2022/09/23 11:43:06;;;;;;;7.80;7.00;;;17.00;99.90;;;;;;4896947;29;20037;-62
2022/09/23 11:45:39;;;;;;;9.38;7.90;;;17.00;99.90;;;;;;4896728;29;20386;-62
2022/09/23 11:48:11;;;;;;;9.85;7.82;;;17.00;99.90;;;;;;4896315;29;20462;-63
2022/09/23 11:50:45;;;;;;;9.10;7.55;;;17.00;99.90;;;;;;4879737;29;20041;-62
2022/09/23 11:53:15;;;;;;;8.77;7.72;;;16.90;99.90;;;;;;4896920;29;20052;-62
2022/09/23 11:55:48;;;;;;;11.60;8.05;;;17.00;99.90;;;;;;4895833;29;20037;-63
2022/09/23 11:58:23;;;;;;;9.05;7.68;;;17.00;99.90;;;;;;4896684;29;20099;-62
2022/09/23 12:01:01;;;;;;;12.50;7.93;;;17.00;99.90;;;;;;4896286;29;20044;-62
2022/09/23 12:03:43;;;;;;;11.60;8.25;;;17.10;99.90;;;;;;4896712;29;20430;-63
2022/09/23 12:06:18;;;;;;;7.07;6.18;;;17.10;99.90;;;;;;4896168;29;20491;-62
2022/09/23 12:08:44;;;;;;;8.50;5.93;;;17.10;99.90;;;;;;4895974;29;20063;-62
2022/09/23 12:11:36;;;;;;;11.98;6.47;;;17.20;99.90;;;;;;4879317;29;20466;-61
2022/09/23 12:14:20;;;;;;;12.07;6.40;;;17.20;99.90;;;;;;4896225;29;20063;-61
2022/09/23 12:17:22;;;;;;;10.07;6.28;;;17.30;99.90;;;;;;4895746;29;20037;-62
2022/09/23 12:19:56;;;;;;;7.88;6.03;;;17.30;99.90;;;;;;4877037;29;20040;-61
2022/09/23 12:22:52;;;;;;;9.40;6.70;;;17.40;99.90;;;;;;4892688;29;20055;-61
2022/09/23 12:25:33;;;;;;;9.18;6.70;;;17.40;99.90;;;;;;4894987;29;20463;-61
2022/09/23 12:28:27;;;;;;;12.40;6.70;;;17.30;99.90;;;;;;4894629;29;20048;-61
2022/09/23 12:30:55;;;;;;;9.68;6.45;;;17.40;99.90;;;;;;4892537;29;20054;-62
2022/09/23 12:33:31;;;;;;;8.15;6.47;;;17.40;99.90;;;;;;4895413;29;20343;-61
2022/09/23 12:36:05;;;;;;;8.18;6.20;;;17.40;99.90;;;;;;4894091;29;20072;-61
2022/09/23 12:38:35;;;;;;;9.43;6.00;;;17.40;99.90;;;;;;4894549;29;20048;-61
2022/09/23 12:41:17;;;;;;;8.68;6.40;;;17.40;99.90;;;;;;4893770;29;20143;-61
2022/09/23 12:43:55;;;;;;;8.75;6.20;;;17.40;99.90;;;;;;4887273;29;20459;-61
2022/09/23 12:46:26;;;;;;;8.95;5.90;;;17.50;99.90;;;;;;4891305;29;20044;-61
2022/09/23 12:48:57;;;;;;;6.85;5.53;;;17.60;99.90;;;;;;4891664;29;20051;-61
2022/09/23 12:51:34;;;;;;;9.32;6.63;;;17.60;99.90;;;;;;4886961;29;20108;-61
2022/09/23 12:54:02;;;;;;;9.70;6.50;;;17.60;99.90;;;;;;4890714;29;20064;-61
2022/09/23 12:56:37;;;;;;;9.90;6.20;;;17.60;99.90;;;;;;4895385;29;20114;-62
2022/09/23 12:59:15;;;;;;;8.38;6.35;;;17.70;99.90;;;;;;4890854;29;20066;-62
2022/09/23 13:01:41;;;;;;;8.88;6.60;;;17.70;99.90;;;;;;4882541;29;20524;-62
2022/09/23 13:07:26;;;;;;;10.25;6.85;;;17.70;99.90;;;;;;4890707;29;20077;-62
2022/09/23 13:09:58;;;;;;;8.10;6.32;;;17.70;99.90;;;;;;4887078;29;20462;-62
2022/09/23 13:12:29;;;;;;;10.00;6.68;;;17.70;99.90;;;;;;4890572;29;20064;-62
2022/09/23 13:15:02;;;;;;;10.82;6.93;;;17.70;99.90;;;;;;4886384;29;20051;-62
2022/09/23 13:17:35;;;;;;;9.60;6.40;;;17.70;99.90;;;;;;4890290;29;20099;-62